sensor_id;sensor_type;location;lat;lon;timestamp;pressure;altitude;pressure_sealevel;temperature
7389;BMP180;3735;50.136;11.062;2022-07-21T00:00:32;98378.00;;;23.30
7389;BMP180;3735;50.136;11.062;2022-07-21T00:02:58;98371.00;;;23.20
7389;BMP180;3735;50.136;11.062;2022-07-21T00:05:25;98375.00;;;23.20
7389;BMP180;3735;50.136;11.062;2022-07-21T00:07:52;98372.00;;;23.20
7389;BMP180;3735;50.136;11.062;2022-07-21T00:10:21;98377.00;;;23.20
7389;BMP180;3735;50.136;11.062;2022-07-21T00:12:47;98367.00;;;23.10
7389;BMP180;3735;50.136;11.062;2022-07-21T00:15:15;98373.00;;;23.00
7389;BMP180;3735;50.136;11.062;2022-07-21T00:17:41;98376.00;;;23.00
7389;BMP180;3735;50.136;11.062;2022-07-21T00:20:09;98386.00;;;23.00
7389;BMP180;3735;50.136;11.062;2022-07-21T00:22:35;98399.00;;;22.90
7389;BMP180;3735;50.136;11.062;2022-07-21T00:25:02;98409.00;;;22.90
7389;BMP180;3735;50.136;11.062;2022-07-21T00:27:28;98401.00;;;22.90
7389;BMP180;3735;50.136;11.062;2022-07-21T00:29:54;98407.00;;;22.80
7389;BMP180;3735;50.136;11.062;2022-07-21T00:32:19;98399.00;;;22.80
7389;BMP180;3735;50.136;11.062;2022-07-21T00:34:45;98392.00;;;22.80
7389;BMP180;3735;50.136;11.062;2022-07-21T00:37:11;98388.00;;;22.80
7389;BMP180;3735;50.136;11.062;2022-07-21T00:39:37;98385.00;;;22.80
7389;BMP180;3735;50.136;11.062;2022-07-21T00:42:03;98393.00;;;22.70
7389;BMP180;3735;50.136;11.062;2022-07-21T00:44:29;98396.00;;;22.70
7389;BMP180;3735;50.136;11.062;2022-07-21T00:46:56;98385.00;;;22.70
7389;BMP180;3735;50.136;11.062;2022-07-21T00:49:22;98407.00;;;22.60
7389;BMP180;3735;50.136;11.062;2022-07-21T00:51:49;98410.00;;;22.60
7389;BMP180;3735;50.136;11.062;2022-07-21T00:54:16;98394.00;;;22.50
7389;BMP180;3735;50.136;11.062;2022-07-21T00:56:44;98397.00;;;22.50
7389;BMP180;3735;50.136;11.062;2022-07-21T00:59:11;98405.00;;;22.40
7389;BMP180;3735;50.136;11.062;2022-07-21T01:01:38;98392.00;;;22.40
7389;BMP180;3735;50.136;11.062;2022-07-21T01:04:04;98375.00;;;22.50
7389;BMP180;3735;50.136;11.062;2022-07-21T01:06:29;98381.00;;;22.50
7389;BMP180;3735;50.136;11.062;2022-07-21T01:08:56;98382.00;;;22.50
7389;BMP180;3735;50.136;11.062;2022-07-21T01:11:24;98375.00;;;22.40
7389;BMP180;3735;50.136;11.062;2022-07-21T01:13:51;98385.00;;;22.40
7389;BMP180;3735;50.136;11.062;2022-07-21T01:16:17;98393.00;;;22.40
7389;BMP180;3735;50.136;11.062;2022-07-21T01:18:43;98399.00;;;22.30
7389;BMP180;3735;50.136;11.062;2022-07-21T01:21:35;98391.00;;;22.40
7389;BMP180;3735;50.136;11.062;2022-07-21T01:24:03;98393.00;;;22.30
7389;BMP180;3735;50.136;11.062;2022-07-21T01:26:31;98390.00;;;22.40
7389;BMP180;3735;50.136;11.062;2022-07-21T01:28:57;98398.00;;;22.40
7389;BMP180;3735;50.136;11.062;2022-07-21T01:31:24;98390.00;;;22.40
7389;BMP180;3735;50.136;11.062;2022-07-21T01:33:51;98388.00;;;22.40
7389;BMP180;3735;50.136;11.062;2022-07-21T01:36:16;98384.00;;;22.40
7389;BMP180;3735;50.136;11.062;2022-07-21T01:38:42;98397.00;;;22.40
7389;BMP180;3735;50.136;11.062;2022-07-21T01:41:27;98393.00;;;22.40
7389;BMP180;3735;50.136;11.062;2022-07-21T01:44:04;98404.00;;;22.40
7389;BMP180;3735;50.136;11.062;2022-07-21T01:46:36;98412.00;;;22.40
7389;BMP180;3735;50.136;11.062;2022-07-21T01:49:04;98412.00;;;22.40
7389;BMP180;3735;50.136;11.062;2022-07-21T01:51:30;98402.00;;;22.30
7389;BMP180;3735;50.136;11.062;2022-07-21T01:53:57;98399.00;;;22.30
7389;BMP180;3735;50.136;11.062;2022-07-21T01:56:25;98408.00;;;22.10
7389;BMP180;3735;50.136;11.062;2022-07-21T01:58:54;98387.00;;;22.10
7389;BMP180;3735;50.136;11.062;2022-07-21T02:01:22;98401.00;;;22.10
7389;BMP180;3735;50.136;11.062;2022-07-21T02:03:49;98419.00;;;22.00
7389;BMP180;3735;50.136;11.062;2022-07-21T02:06:16;98439.00;;;22.00
7389;BMP180;3735;50.136;11.062;2022-07-21T02:08:42;98456.00;;;22.00
7389;BMP180;3735;50.136;11.062;2022-07-21T02:11:09;98456.00;;;21.90
7389;BMP180;3735;50.136;11.062;2022-07-21T02:13:35;98398.00;;;21.90
7389;BMP180;3735;50.136;11.062;2022-07-21T02:16:02;98392.00;;;21.50
7389;BMP180;3735;50.136;11.062;2022-07-21T02:18:28;98427.00;;;21.00
7389;BMP180;3735;50.136;11.062;2022-07-21T02:20:54;98418.00;;;20.70
7389;BMP180;3735;50.136;11.062;2022-07-21T02:23:21;98394.00;;;20.40
7389;BMP180;3735;50.136;11.062;2022-07-21T02:25:48;98372.00;;;20.20
7389;BMP180;3735;50.136;11.062;2022-07-21T02:28:14;98369.00;;;20.00
7389;BMP180;3735;50.136;11.062;2022-07-21T02:30:40;98367.00;;;19.80
7389;BMP180;3735;50.136;11.062;2022-07-21T02:33:06;98363.00;;;19.60
7389;BMP180;3735;50.136;11.062;2022-07-21T02:35:33;98352.00;;;19.50
7389;BMP180;3735;50.136;11.062;2022-07-21T02:37:59;98364.00;;;19.40
7389;BMP180;3735;50.136;11.062;2022-07-21T02:40:25;98364.00;;;19.40
7389;BMP180;3735;50.136;11.062;2022-07-21T02:42:51;98350.00;;;19.40
7389;BMP180;3735;50.136;11.062;2022-07-21T02:45:17;98365.00;;;19.40
7389;BMP180;3735;50.136;11.062;2022-07-21T02:47:53;98372.00;;;19.40
7389;BMP180;3735;50.136;11.062;2022-07-21T02:50:21;98382.00;;;19.40
7389;BMP180;3735;50.136;11.062;2022-07-21T02:52:48;98375.00;;;19.30
7389;BMP180;3735;50.136;11.062;2022-07-21T02:55:14;98366.00;;;19.20
7389;BMP180;3735;50.136;11.062;2022-07-21T02:57:40;98366.00;;;19.20
7389;BMP180;3735;50.136;11.062;2022-07-21T03:00:09;98377.00;;;19.10
7389;BMP180;3735;50.136;11.062;2022-07-21T03:02:36;98386.00;;;19.00
7389;BMP180;3735;50.136;11.062;2022-07-21T03:05:02;98390.00;;;18.90
7389;BMP180;3735;50.136;11.062;2022-07-21T03:07:28;98393.00;;;18.90
7389;BMP180;3735;50.136;11.062;2022-07-21T03:09:54;98385.00;;;18.90
7389;BMP180;3735;50.136;11.062;2022-07-21T03:12:20;98383.00;;;18.80
7389;BMP180;3735;50.136;11.062;2022-07-21T03:14:46;98367.00;;;18.70
7389;BMP180;3735;50.136;11.062;2022-07-21T03:17:11;98384.00;;;18.70
7389;BMP180;3735;50.136;11.062;2022-07-21T03:19:37;98381.00;;;18.70
7389;BMP180;3735;50.136;11.062;2022-07-21T03:22:03;98391.00;;;18.60
7389;BMP180;3735;50.136;11.062;2022-07-21T03:24:30;98392.00;;;18.60
7389;BMP180;3735;50.136;11.062;2022-07-21T03:26:56;98382.00;;;18.60
7389;BMP180;3735;50.136;11.062;2022-07-21T03:29:22;98390.00;;;18.50
7389;BMP180;3735;50.136;11.062;2022-07-21T03:31:48;98367.00;;;18.50
7389;BMP180;3735;50.136;11.062;2022-07-21T03:34:14;98377.00;;;18.60
7389;BMP180;3735;50.136;11.062;2022-07-21T03:36:40;98404.00;;;18.60
7389;BMP180;3735;50.136;11.062;2022-07-21T03:39:06;98412.00;;;18.60
7389;BMP180;3735;50.136;11.062;2022-07-21T03:41:31;98428.00;;;18.60
7389;BMP180;3735;50.136;11.062;2022-07-21T03:43:57;98432.00;;;18.70
7389;BMP180;3735;50.136;11.062;2022-07-21T03:46:23;98433.00;;;18.60
7389;BMP180;3735;50.136;11.062;2022-07-21T03:48:49;98435.00;;;18.60
7389;BMP180;3735;50.136;11.062;2022-07-21T03:51:15;98425.00;;;18.60
7389;BMP180;3735;50.136;11.062;2022-07-21T03:53:41;98439.00;;;18.60
7389;BMP180;3735;50.136;11.062;2022-07-21T03:56:07;98446.00;;;18.60
7389;BMP180;3735;50.136;11.062;2022-07-21T03:58:33;98440.00;;;18.70
7389;BMP180;3735;50.136;11.062;2022-07-21T04:00:59;98448.00;;;18.80
7389;BMP180;3735;50.136;11.062;2022-07-21T04:03:25;98457.00;;;18.90
7389;BMP180;3735;50.136;11.062;2022-07-21T04:05:50;98465.00;;;19.00
7389;BMP180;3735;50.136;11.062;2022-07-21T04:08:16;98471.00;;;19.00
7389;BMP180;3735;50.136;11.062;2022-07-21T04:10:43;98467.00;;;19.10
7389;BMP180;3735;50.136;11.062;2022-07-21T04:13:13;98465.00;;;19.20
7389;BMP180;3735;50.136;11.062;2022-07-21T04:15:39;98465.00;;;19.20
7389;BMP180;3735;50.136;11.062;2022-07-21T04:18:06;98468.00;;;19.30
7389;BMP180;3735;50.136;11.062;2022-07-21T04:20:33;98471.00;;;19.40
7389;BMP180;3735;50.136;11.062;2022-07-21T04:22:59;98457.00;;;19.40
7389;BMP180;3735;50.136;11.062;2022-07-21T04:25:25;98457.00;;;19.40
7389;BMP180;3735;50.136;11.062;2022-07-21T04:27:51;98457.00;;;19.50
7389;BMP180;3735;50.136;11.062;2022-07-21T04:30:21;98461.00;;;19.60
7389;BMP180;3735;50.136;11.062;2022-07-21T04:32:47;98466.00;;;19.60
7389;BMP180;3735;50.136;11.062;2022-07-21T04:35:14;98466.00;;;19.70
7389;BMP180;3735;50.136;11.062;2022-07-21T04:37:41;98469.00;;;19.80
7389;BMP180;3735;50.136;11.062;2022-07-21T04:40:11;98481.00;;;19.90
7389;BMP180;3735;50.136;11.062;2022-07-21T04:42:37;98487.00;;;19.90
7389;BMP180;3735;50.136;11.062;2022-07-21T04:45:06;98490.00;;;20.00
7389;BMP180;3735;50.136;11.062;2022-07-21T04:47:32;98481.00;;;20.00
7389;BMP180;3735;50.136;11.062;2022-07-21T04:49:58;98488.00;;;20.10
7389;BMP180;3735;50.136;11.062;2022-07-21T04:52:24;98494.00;;;20.10
7389;BMP180;3735;50.136;11.062;2022-07-21T04:54:49;98502.00;;;19.90
7389;BMP180;3735;50.136;11.062;2022-07-21T04:57:15;98507.00;;;20.00
7389;BMP180;3735;50.136;11.062;2022-07-21T04:59:41;98503.00;;;20.00
7389;BMP180;3735;50.136;11.062;2022-07-21T05:02:07;98497.00;;;20.00
7389;BMP180;3735;50.136;11.062;2022-07-21T05:04:33;98497.00;;;20.00
7389;BMP180;3735;50.136;11.062;2022-07-21T05:06:58;98500.00;;;19.90
7389;BMP180;3735;50.136;11.062;2022-07-21T05:09:24;98505.00;;;20.00
7389;BMP180;3735;50.136;11.062;2022-07-21T05:11:50;98498.00;;;19.90
7389;BMP180;3735;50.136;11.062;2022-07-21T05:14:16;98503.00;;;19.80
7389;BMP180;3735;50.136;11.062;2022-07-21T05:16:42;98500.00;;;19.70
7389;BMP180;3735;50.136;11.062;2022-07-21T05:19:09;98495.00;;;19.60
7389;BMP180;3735;50.136;11.062;2022-07-21T05:21:34;98500.00;;;19.50
7389;BMP180;3735;50.136;11.062;2022-07-21T05:24:00;98495.00;;;19.50
7389;BMP180;3735;50.136;11.062;2022-07-21T05:26:26;98503.00;;;19.40
7389;BMP180;3735;50.136;11.062;2022-07-21T05:28:52;98504.00;;;19.40
7389;BMP180;3735;50.136;11.062;2022-07-21T05:31:17;98504.00;;;19.40
7389;BMP180;3735;50.136;11.062;2022-07-21T05:33:43;98512.00;;;19.40
7389;BMP180;3735;50.136;11.062;2022-07-21T05:36:09;98527.00;;;19.40
7389;BMP180;3735;50.136;11.062;2022-07-21T05:38:35;98534.00;;;19.40
7389;BMP180;3735;50.136;11.062;2022-07-21T05:41:00;98524.00;;;19.40
7389;BMP180;3735;50.136;11.062;2022-07-21T05:43:29;98522.00;;;19.50
7389;BMP180;3735;50.136;11.062;2022-07-21T05:45:57;98528.00;;;19.50
7389;BMP180;3735;50.136;11.062;2022-07-21T05:48:23;98525.00;;;19.50
7389;BMP180;3735;50.136;11.062;2022-07-21T05:50:49;98527.00;;;19.50
7389;BMP180;3735;50.136;11.062;2022-07-21T05:53:14;98523.00;;;19.40
7389;BMP180;3735;50.136;11.062;2022-07-21T05:55:41;98528.00;;;19.30
7389;BMP180;3735;50.136;11.062;2022-07-21T05:58:07;98539.00;;;19.40
7389;BMP180;3735;50.136;11.062;2022-07-21T06:00:33;98529.00;;;19.40
7389;BMP180;3735;50.136;11.062;2022-07-21T06:02:59;98536.00;;;19.40
7389;BMP180;3735;50.136;11.062;2022-07-21T06:05:25;98538.00;;;19.50
7389;BMP180;3735;50.136;11.062;2022-07-21T06:07:50;98527.00;;;19.60
7389;BMP180;3735;50.136;11.062;2022-07-21T06:10:16;98540.00;;;19.70
7389;BMP180;3735;50.136;11.062;2022-07-21T06:12:43;98536.00;;;19.80
7389;BMP180;3735;50.136;11.062;2022-07-21T06:15:10;98522.00;;;19.80
7389;BMP180;3735;50.136;11.062;2022-07-21T06:17:44;98521.00;;;19.90
7389;BMP180;3735;50.136;11.062;2022-07-21T06:20:12;98535.00;;;19.80
7389;BMP180;3735;50.136;11.062;2022-07-21T06:22:39;98540.00;;;20.00
7389;BMP180;3735;50.136;11.062;2022-07-21T06:25:08;98541.00;;;20.00
7389;BMP180;3735;50.136;11.062;2022-07-21T06:27:34;98541.00;;;20.10
7389;BMP180;3735;50.136;11.062;2022-07-21T06:30:00;98535.00;;;20.40
7389;BMP180;3735;50.136;11.062;2022-07-21T06:32:26;98535.00;;;20.60
7389;BMP180;3735;50.136;11.062;2022-07-21T06:34:52;98527.00;;;20.60
7389;BMP180;3735;50.136;11.062;2022-07-21T06:37:17;98529.00;;;21.00
7389;BMP180;3735;50.136;11.062;2022-07-21T06:39:43;98523.00;;;21.80
7389;BMP180;3735;50.136;11.062;2022-07-21T06:42:09;98534.00;;;22.60
7389;BMP180;3735;50.136;11.062;2022-07-21T06:44:35;98550.00;;;22.20
7389;BMP180;3735;50.136;11.062;2022-07-21T06:47:01;98553.00;;;21.70
7389;BMP180;3735;50.136;11.062;2022-07-21T06:49:33;98545.00;;;21.60
7389;BMP180;3735;50.136;11.062;2022-07-21T06:51:59;98550.00;;;21.60
7389;BMP180;3735;50.136;11.062;2022-07-21T06:54:25;98552.00;;;21.40
7389;BMP180;3735;50.136;11.062;2022-07-21T06:56:51;98558.00;;;21.10
7389;BMP180;3735;50.136;11.062;2022-07-21T06:59:17;98561.00;;;21.10
7389;BMP180;3735;50.136;11.062;2022-07-21T07:01:42;98562.00;;;20.90
7389;BMP180;3735;50.136;11.062;2022-07-21T07:04:08;98575.00;;;20.80
7389;BMP180;3735;50.136;11.062;2022-07-21T07:06:34;98568.00;;;21.00
7389;BMP180;3735;50.136;11.062;2022-07-21T07:09:00;98566.00;;;20.90
7389;BMP180;3735;50.136;11.062;2022-07-21T07:11:26;98573.00;;;21.00
7389;BMP180;3735;50.136;11.062;2022-07-21T07:13:51;98568.00;;;21.00
7389;BMP180;3735;50.136;11.062;2022-07-21T07:16:17;98578.00;;;20.80
7389;BMP180;3735;50.136;11.062;2022-07-21T07:18:43;98586.00;;;20.80
7389;BMP180;3735;50.136;11.062;2022-07-21T07:21:09;98584.00;;;20.80
7389;BMP180;3735;50.136;11.062;2022-07-21T07:23:34;98580.00;;;20.90
7389;BMP180;3735;50.136;11.062;2022-07-21T07:26:00;98571.00;;;20.90
7389;BMP180;3735;50.136;11.062;2022-07-21T07:28:26;98569.00;;;21.20
7389;BMP180;3735;50.136;11.062;2022-07-21T07:30:52;98582.00;;;21.80
7389;BMP180;3735;50.136;11.062;2022-07-21T07:33:17;98574.00;;;22.30
7389;BMP180;3735;50.136;11.062;2022-07-21T07:35:43;98583.00;;;22.30
7389;BMP180;3735;50.136;11.062;2022-07-21T07:38:16;98574.00;;;22.20
7389;BMP180;3735;50.136;11.062;2022-07-21T07:40:42;98576.00;;;22.70
7389;BMP180;3735;50.136;11.062;2022-07-21T07:43:08;98584.00;;;23.40
7389;BMP180;3735;50.136;11.062;2022-07-21T07:45:36;98579.00;;;24.10
7389;BMP180;3735;50.136;11.062;2022-07-21T07:48:02;98572.00;;;24.20
7389;BMP180;3735;50.136;11.062;2022-07-21T07:50:28;98575.00;;;23.90
7389;BMP180;3735;50.136;11.062;2022-07-21T07:52:54;98575.00;;;23.80
7389;BMP180;3735;50.136;11.062;2022-07-21T07:55:20;98570.00;;;23.80
7389;BMP180;3735;50.136;11.062;2022-07-21T07:57:46;98557.00;;;22.90
7389;BMP180;3735;50.136;11.062;2022-07-21T08:00:16;98559.00;;;24.30
7389;BMP180;3735;50.136;11.062;2022-07-21T08:02:42;98560.00;;;26.40
7389;BMP180;3735;50.136;11.062;2022-07-21T08:05:09;98554.00;;;27.10
7389;BMP180;3735;50.136;11.062;2022-07-21T08:07:37;98552.00;;;28.90
7389;BMP180;3735;50.136;11.062;2022-07-21T08:10:07;98556.00;;;29.50
7389;BMP180;3735;50.136;11.062;2022-07-21T08:12:35;98557.00;;;29.10
7389;BMP180;3735;50.136;11.062;2022-07-21T08:15:01;98571.00;;;27.80
7389;BMP180;3735;50.136;11.062;2022-07-21T08:17:27;98577.00;;;27.60
7389;BMP180;3735;50.136;11.062;2022-07-21T08:19:53;98568.00;;;26.80
7389;BMP180;3735;50.136;11.062;2022-07-21T08:22:19;98568.00;;;26.60
7389;BMP180;3735;50.136;11.062;2022-07-21T08:24:44;98575.00;;;26.40
7389;BMP180;3735;50.136;11.062;2022-07-21T08:27:10;98584.00;;;26.20
7389;BMP180;3735;50.136;11.062;2022-07-21T08:29:36;98586.00;;;25.40
7389;BMP180;3735;50.136;11.062;2022-07-21T08:32:02;98590.00;;;24.70
7389;BMP180;3735;50.136;11.062;2022-07-21T08:34:28;98586.00;;;24.50
7389;BMP180;3735;50.136;11.062;2022-07-21T08:36:54;98589.00;;;24.20
7389;BMP180;3735;50.136;11.062;2022-07-21T08:39:20;98585.00;;;24.60
7389;BMP180;3735;50.136;11.062;2022-07-21T08:41:47;98583.00;;;24.30
7389;BMP180;3735;50.136;11.062;2022-07-21T08:44:14;98594.00;;;24.30
7389;BMP180;3735;50.136;11.062;2022-07-21T08:46:41;98585.00;;;25.00
7389;BMP180;3735;50.136;11.062;2022-07-21T08:49:09;98580.00;;;26.40
7389;BMP180;3735;50.136;11.062;2022-07-21T08:51:37;98585.00;;;28.10
7389;BMP180;3735;50.136;11.062;2022-07-21T08:54:03;98586.00;;;28.50
7389;BMP180;3735;50.136;11.062;2022-07-21T08:56:30;98577.00;;;29.00
7389;BMP180;3735;50.136;11.062;2022-07-21T08:58:55;98587.00;;;29.90
7389;BMP180;3735;50.136;11.062;2022-07-21T09:01:21;98582.00;;;29.50
7389;BMP180;3735;50.136;11.062;2022-07-21T09:03:52;98586.00;;;29.50
7389;BMP180;3735;50.136;11.062;2022-07-21T09:06:19;98585.00;;;28.90
7389;BMP180;3735;50.136;11.062;2022-07-21T09:08:53;98594.00;;;28.50
7389;BMP180;3735;50.136;11.062;2022-07-21T09:11:27;98594.00;;;27.70
7389;BMP180;3735;50.136;11.062;2022-07-21T09:14:11;98588.00;;;28.00
7389;BMP180;3735;50.136;11.062;2022-07-21T09:17:02;98586.00;;;28.50
7389;BMP180;3735;50.136;11.062;2022-07-21T09:19:32;98586.00;;;28.50
7389;BMP180;3735;50.136;11.062;2022-07-21T09:22:02;98571.00;;;29.30
7389;BMP180;3735;50.136;11.062;2022-07-21T09:24:32;98575.00;;;30.00
7389;BMP180;3735;50.136;11.062;2022-07-21T09:29:41;98573.00;;;30.70
7389;BMP180;3735;50.136;11.062;2022-07-21T09:32:27;98576.00;;;29.80
7389;BMP180;3735;50.136;11.062;2022-07-21T09:35:10;98579.00;;;29.50
7389;BMP180;3735;50.136;11.062;2022-07-21T09:37:40;98581.00;;;30.60
7389;BMP180;3735;50.136;11.062;2022-07-21T09:40:08;98582.00;;;31.00
7389;BMP180;3735;50.136;11.062;2022-07-21T09:42:51;98577.00;;;29.10
7389;BMP180;3735;50.136;11.062;2022-07-21T09:45:18;98584.00;;;29.00
7389;BMP180;3735;50.136;11.062;2022-07-21T09:47:45;98593.00;;;29.80
7389;BMP180;3735;50.136;11.062;2022-07-21T09:50:15;98588.00;;;30.40
7389;BMP180;3735;50.136;11.062;2022-07-21T09:52:46;98579.00;;;30.30
7389;BMP180;3735;50.136;11.062;2022-07-21T09:55:14;98586.00;;;31.00
7389;BMP180;3735;50.136;11.062;2022-07-21T09:57:44;98578.00;;;30.70
7389;BMP180;3735;50.136;11.062;2022-07-21T10:00:16;98570.00;;;29.40
7389;BMP180;3735;50.136;11.062;2022-07-21T10:02:44;98570.00;;;29.40
7389;BMP180;3735;50.136;11.062;2022-07-21T10:05:18;98584.00;;;29.40
7389;BMP180;3735;50.136;11.062;2022-07-21T10:07:47;98582.00;;;29.40
7389;BMP180;3735;50.136;11.062;2022-07-21T10:10:14;98571.00;;;29.70
7389;BMP180;3735;50.136;11.062;2022-07-21T10:12:41;98574.00;;;31.20
7389;BMP180;3735;50.136;11.062;2022-07-21T10:15:07;98582.00;;;31.70
7389;BMP180;3735;50.136;11.062;2022-07-21T10:17:33;98571.00;;;31.80
7389;BMP180;3735;50.136;11.062;2022-07-21T10:25:22;98553.00;;;31.70
7389;BMP180;3735;50.136;11.062;2022-07-21T10:28:19;98565.00;;;32.00
7389;BMP180;3735;50.136;11.062;2022-07-21T10:30:53;98560.00;;;32.60
7389;BMP180;3735;50.136;11.062;2022-07-21T10:36:09;98556.00;;;30.70
7389;BMP180;3735;50.136;11.062;2022-07-21T10:38:37;98563.00;;;31.50
7389;BMP180;3735;50.136;11.062;2022-07-21T10:41:05;98564.00;;;32.80
7389;BMP180;3735;50.136;11.062;2022-07-21T10:45:59;98567.00;;;33.40
7389;BMP180;3735;50.136;11.062;2022-07-21T10:48:47;98562.00;;;31.90
7389;BMP180;3735;50.136;11.062;2022-07-21T10:51:15;98564.00;;;32.20
7389;BMP180;3735;50.136;11.062;2022-07-21T10:53:43;98553.00;;;33.30
7389;BMP180;3735;50.136;11.062;2022-07-21T10:56:26;98567.00;;;33.40
7389;BMP180;3735;50.136;11.062;2022-07-21T10:58:53;98566.00;;;33.50
7389;BMP180;3735;50.136;11.062;2022-07-21T11:03:45;98557.00;;;33.70
7389;BMP180;3735;50.136;11.062;2022-07-21T11:06:22;98563.00;;;33.50
7389;BMP180;3735;50.136;11.062;2022-07-21T11:08:57;98553.00;;;32.80
7389;BMP180;3735;50.136;11.062;2022-07-21T11:11:34;98546.00;;;33.00
7389;BMP180;3735;50.136;11.062;2022-07-21T11:14:13;98547.00;;;33.70
7389;BMP180;3735;50.136;11.062;2022-07-21T11:22:11;98555.00;;;32.90
7389;BMP180;3735;50.136;11.062;2022-07-21T11:24:39;98538.00;;;32.40
7389;BMP180;3735;50.136;11.062;2022-07-21T11:27:12;98544.00;;;32.30
7389;BMP180;3735;50.136;11.062;2022-07-21T11:29:43;98546.00;;;33.30
7389;BMP180;3735;50.136;11.062;2022-07-21T11:32:11;98528.00;;;34.60
7389;BMP180;3735;50.136;11.062;2022-07-21T11:34:54;98528.00;;;34.70
7389;BMP180;3735;50.136;11.062;2022-07-21T11:40:23;98522.00;;;33.30
7389;BMP180;3735;50.136;11.062;2022-07-21T11:42:51;98531.00;;;32.30
7389;BMP180;3735;50.136;11.062;2022-07-21T11:45:24;98535.00;;;33.70
7389;BMP180;3735;50.136;11.062;2022-07-21T11:47:53;98528.00;;;32.90
7389;BMP180;3735;50.136;11.062;2022-07-21T11:50:19;98527.00;;;32.40
7389;BMP180;3735;50.136;11.062;2022-07-21T11:52:45;98527.00;;;32.90
7389;BMP180;3735;50.136;11.062;2022-07-21T11:55:11;98516.00;;;34.00
7389;BMP180;3735;50.136;11.062;2022-07-21T11:57:43;98526.00;;;33.20
7389;BMP180;3735;50.136;11.062;2022-07-21T12:00:09;98518.00;;;33.00
7389;BMP180;3735;50.136;11.062;2022-07-21T12:02:35;98504.00;;;34.30
7389;BMP180;3735;50.136;11.062;2022-07-21T12:05:06;98509.00;;;32.60
7389;BMP180;3735;50.136;11.062;2022-07-21T12:07:48;98508.00;;;30.90
7389;BMP180;3735;50.136;11.062;2022-07-21T12:10:29;98502.00;;;31.40
7389;BMP180;3735;50.136;11.062;2022-07-21T12:13:05;98504.00;;;31.20
7389;BMP180;3735;50.136;11.062;2022-07-21T12:15:35;98509.00;;;31.10
7389;BMP180;3735;50.136;11.062;2022-07-21T12:18:18;98504.00;;;30.30
7389;BMP180;3735;50.136;11.062;2022-07-21T12:20:45;98505.00;;;30.50
7389;BMP180;3735;50.136;11.062;2022-07-21T12:23:30;98510.00;;;32.20
7389;BMP180;3735;50.136;11.062;2022-07-21T12:25:59;98509.00;;;33.00
7389;BMP180;3735;50.136;11.062;2022-07-21T12:28:43;98506.00;;;33.80
7389;BMP180;3735;50.136;11.062;2022-07-21T12:31:12;98497.00;;;33.70
7389;BMP180;3735;50.136;11.062;2022-07-21T12:33:40;98501.00;;;35.50
7389;BMP180;3735;50.136;11.062;2022-07-21T12:36:09;98502.00;;;34.70
7389;BMP180;3735;50.136;11.062;2022-07-21T12:38:47;98505.00;;;34.10
7389;BMP180;3735;50.136;11.062;2022-07-21T12:41:17;98495.00;;;33.90
7389;BMP180;3735;50.136;11.062;2022-07-21T12:44:02;98505.00;;;31.20
7389;BMP180;3735;50.136;11.062;2022-07-21T12:46:31;98512.00;;;31.50
7389;BMP180;3735;50.136;11.062;2022-07-21T12:49:09;98502.00;;;32.80
7389;BMP180;3735;50.136;11.062;2022-07-21T12:51:39;98511.00;;;32.70
7389;BMP180;3735;50.136;11.062;2022-07-21T12:54:07;98510.00;;;33.50
7389;BMP180;3735;50.136;11.062;2022-07-21T12:56:35;98511.00;;;33.50
7389;BMP180;3735;50.136;11.062;2022-07-21T12:59:03;98505.00;;;34.00
7389;BMP180;3735;50.136;11.062;2022-07-21T13:01:30;98497.00;;;34.60
7389;BMP180;3735;50.136;11.062;2022-07-21T13:04:01;98498.00;;;34.70
7389;BMP180;3735;50.136;11.062;2022-07-21T13:06:27;98504.00;;;35.20
7389;BMP180;3735;50.136;11.062;2022-07-21T13:08:53;98508.00;;;34.40
7389;BMP180;3735;50.136;11.062;2022-07-21T13:11:20;98512.00;;;32.80
7389;BMP180;3735;50.136;11.062;2022-07-21T13:13:48;98508.00;;;33.30
7389;BMP180;3735;50.136;11.062;2022-07-21T13:16:16;98496.00;;;33.70
7389;BMP180;3735;50.136;11.062;2022-07-21T13:18:43;98508.00;;;33.50
7389;BMP180;3735;50.136;11.062;2022-07-21T13:21:09;98503.00;;;32.70
7389;BMP180;3735;50.136;11.062;2022-07-21T13:23:35;98506.00;;;33.50
7389;BMP180;3735;50.136;11.062;2022-07-21T13:26:01;98504.00;;;32.70
7389;BMP180;3735;50.136;11.062;2022-07-21T13:28:27;98493.00;;;32.70
7389;BMP180;3735;50.136;11.062;2022-07-21T13:30:53;98488.00;;;32.90
7389;BMP180;3735;50.136;11.062;2022-07-21T13:33:19;98489.00;;;34.10
7389;BMP180;3735;50.136;11.062;2022-07-21T13:35:45;98494.00;;;33.80
7389;BMP180;3735;50.136;11.062;2022-07-21T13:38:11;98489.00;;;33.20
7389;BMP180;3735;50.136;11.062;2022-07-21T13:40:38;98482.00;;;33.00
7389;BMP180;3735;50.136;11.062;2022-07-21T13:43:05;98491.00;;;32.00
7389;BMP180;3735;50.136;11.062;2022-07-21T13:45:31;98489.00;;;31.60
7389;BMP180;3735;50.136;11.062;2022-07-21T13:47:57;98483.00;;;31.70
7389;BMP180;3735;50.136;11.062;2022-07-21T13:50:23;98482.00;;;31.80
7389;BMP180;3735;50.136;11.062;2022-07-21T13:52:49;98489.00;;;30.80
7389;BMP180;3735;50.136;11.062;2022-07-21T13:55:15;98487.00;;;30.30
7389;BMP180;3735;50.136;11.062;2022-07-21T13:57:41;98483.00;;;29.70
7389;BMP180;3735;50.136;11.062;2022-07-21T14:00:09;98484.00;;;29.80
7389;BMP180;3735;50.136;11.062;2022-07-21T14:02:36;98489.00;;;29.90
7389;BMP180;3735;50.136;11.062;2022-07-21T14:05:03;98486.00;;;30.00
7389;BMP180;3735;50.136;11.062;2022-07-21T14:07:30;98485.00;;;30.20
7389;BMP180;3735;50.136;11.062;2022-07-21T14:09:56;98480.00;;;30.50
7389;BMP180;3735;50.136;11.062;2022-07-21T14:12:22;98472.00;;;31.40
7389;BMP180;3735;50.136;11.062;2022-07-21T14:14:48;98470.00;;;32.50
7389;BMP180;3735;50.136;11.062;2022-07-21T14:17:16;98456.00;;;31.80
7389;BMP180;3735;50.136;11.062;2022-07-21T14:19:44;98464.00;;;31.10
7389;BMP180;3735;50.136;11.062;2022-07-21T14:22:12;98468.00;;;30.60
7389;BMP180;3735;50.136;11.062;2022-07-21T14:24:38;98457.00;;;30.60
7389;BMP180;3735;50.136;11.062;2022-07-21T14:27:22;98475.00;;;30.30
7389;BMP180;3735;50.136;11.062;2022-07-21T14:29:48;98473.00;;;29.60
7389;BMP180;3735;50.136;11.062;2022-07-21T14:32:14;98471.00;;;29.30
7389;BMP180;3735;50.136;11.062;2022-07-21T14:34:42;98471.00;;;29.10
7389;BMP180;3735;50.136;11.062;2022-07-21T14:37:08;98467.00;;;29.20
7389;BMP180;3735;50.136;11.062;2022-07-21T14:39:33;98470.00;;;29.60
7389;BMP180;3735;50.136;11.062;2022-07-21T14:41:59;98465.00;;;30.60
7389;BMP180;3735;50.136;11.062;2022-07-21T14:44:25;98469.00;;;31.90
7389;BMP180;3735;50.136;11.062;2022-07-21T14:46:51;98468.00;;;32.70
7389;BMP180;3735;50.136;11.062;2022-07-21T14:49:16;98460.00;;;33.40